Time;durP1;ratioP1;P1;durP2;ratioP2;P2;SDS_P1;SDS_P2;PMS_P1;PMS_P2;Temp;Humidity;BMP_temperature;BMP_pressure;BME280_temperature;BME280_humidity;BME280_pressure;Samples;Min_cycle;Max_cycle;Signal;HPM_P1;HPM_P2
2020/12/22 00:00:33;;;;;;;7.60;6.80;;;;;;;-1.98;81.26;101462.48;1729467;82;21580;-64
2020/12/22 00:03:00;;;;;;;6.90;6.13;;;;;;;-1.99;81.39;101466.08;1731286;81;21621;-68
2020/12/22 00:05:28;;;;;;;7.70;6.53;;;;;;;-1.97;81.29;101468.12;1718733;82;21623;-64
2020/12/22 00:07:55;;;;;;;7.33;6.63;;;;;;;-1.99;81.42;101470.03;1729120;82;22243;-64
2020/12/22 00:10:23;;;;;;;8.13;6.07;;;;;;;-1.95;81.40;101464.37;1711814;82;21174;-63
2020/12/22 00:12:50;;;;;;;9.17;7.93;;;;;;;-1.92;81.31;101462.80;1702291;84;21174;-64
2020/12/22 00:15:18;;;;;;;8.57;6.50;;;;;;;-1.93;81.42;101470.86;1740531;81;21278;-64
2020/12/22 00:17:46;;;;;;;9.67;7.27;;;;;;;-1.87;81.39;101469.85;1761914;81;21746;-65
2020/12/22 00:20:15;;;;;;;7.80;6.30;;;;;;;-1.81;81.24;101467.20;1738007;81;21023;-62
2020/12/22 00:22:45;;;;;;;9.97;7.27;;;;;;;-1.76;80.85;101466.34;1752953;81;21710;-63
2020/12/22 00:25:13;;;;;;;9.23;7.27;;;;;;;-1.76;80.65;101459.27;1724879;81;21757;-63
2020/12/22 00:27:41;;;;;;;9.93;7.07;;;;;;;-1.84;80.70;101465.66;1719883;83;21603;-63
2020/12/22 00:30:08;;;;;;;8.43;7.57;;;;;;;-1.90;80.94;101460.89;1705398;82;21149;-66
2020/12/22 00:32:36;;;;;;;6.23;5.60;;;;;;;-1.94;81.21;101460.78;1705579;82;21183;-63
2020/12/22 00:35:05;;;;;;;8.43;7.13;;;;;;;-1.90;81.48;101464.84;1706985;82;21005;-62
2020/12/22 00:37:32;;;;;;;9.40;7.63;;;;;;;-1.86;81.62;101454.39;1705001;84;21146;-63
2020/12/22 00:40:00;;;;;;;9.93;7.80;;;;;;;-1.76;81.62;101456.63;1705479;82;21260;-63
2020/12/22 00:42:32;;;;;;;8.63;7.10;;;;;;;-1.69;81.49;101453.01;1725922;82;21144;-63
2020/12/22 00:45:00;;;;;;;8.27;7.40;;;;;;;-1.70;81.22;101457.08;1733792;82;21603;-69
2020/12/22 00:47:27;;;;;;;9.27;6.37;;;;;;;-1.72;81.12;101445.81;1730562;82;21146;-63
2020/12/22 00:49:56;;;;;;;8.50;7.03;;;;;;;-1.72;80.97;101449.28;1717485;81;21566;-63
2020/12/22 00:52:23;;;;;;;7.00;5.53;;;;;;;-1.79;80.96;101446.34;1706338;81;21388;-66
2020/12/22 00:54:52;;;;;;;8.83;7.47;;;;;;;-1.83;81.28;101444.09;1717423;81;21611;-64
2020/12/22 00:57:20;;;;;;;6.73;5.37;;;;;;;-1.90;81.54;101438.95;1723531;81;21643;-62
2020/12/22 00:59:55;;;;;;;8.83;7.07;;;;;;;-1.97;82.02;101442.59;1724784;82;21867;-62
2020/12/22 01:02:23;;;;;;;7.27;6.37;;;;;;;-1.99;82.07;101445.83;1718697;82;21172;-65
2020/12/22 01:04:51;;;;;;;10.23;7.60;;;;;;;-1.96;82.02;101446.04;1708902;82;21226;-65
2020/12/22 01:07:19;;;;;;;8.47;7.10;;;;;;;-1.97;81.91;101439.95;1708408;84;21176;-62
2020/12/22 01:09:46;;;;;;;9.20;7.07;;;;;;;-1.95;82.06;101439.33;1714097;82;21165;-62
2020/12/22 01:12:14;;;;;;;9.17;6.70;;;;;;;-1.96;81.93;101443.41;1741409;81;21182;-62
2020/12/22 01:14:44;;;;;;;7.60;6.27;;;;;;;-2.03;82.01;101445.73;1724288;83;21178;-62
2020/12/22 01:17:12;;;;;;;8.03;6.67;;;;;;;-2.06;82.05;101445.95;1730482;81;21467;-65
2020/12/22 01:19:40;;;;;;;7.47;6.20;;;;;;;-2.11;82.04;101441.54;1730317;81;21168;-62
2020/12/22 01:22:07;;;;;;;9.27;7.20;;;;;;;-2.12;81.91;101445.16;1733724;82;21665;-62
2020/12/22 01:24:35;;;;;;;15.20;10.03;;;;;;;-2.13;81.96;101439.53;1725236;82;21204;-63
2020/12/22 01:27:03;;;;;;;12.17;9.10;;;;;;;-2.12;82.11;101442.53;1708954;83;21164;-63
2020/12/22 01:29:30;;;;;;;13.70;9.07;;;;;;;-2.12;82.22;101444.32;1733572;81;21349;-63
2020/12/22 01:31:58;;;;;;;13.33;7.23;;;;;;;-2.18;82.36;101439.06;1697990;84;21140;-61
2020/12/22 01:34:26;;;;;;;10.93;8.60;;;;;;;-2.15;82.69;101443.23;1698079;83;21154;-62
2020/12/22 01:36:53;;;;;;;8.83;5.93;;;;;;;-2.12;82.74;101443.84;1723808;82;21063;-66
2020/12/22 01:39:21;;;;;;;12.20;8.23;;;;;;;-2.03;82.83;101449.68;1740253;81;21554;-65
2020/12/22 01:41:49;;;;;;;10.30;8.43;;;;;;;-2.05;82.62;101438.89;1737812;82;21661;-64
2020/12/22 01:44:18;;;;;;;11.50;9.40;;;;;;;-1.99;82.74;101431.80;1739813;81;21194;-64
2020/12/22 01:46:50;;;;;;;12.73;9.00;;;;;;;-1.94;82.46;101422.55;1737822;82;21614;-63
2020/12/22 01:49:27;;;;;;;9.38;7.72;;;;;;;-1.94;82.40;101426.51;1726903;81;21601;-67
2020/12/22 01:51:56;;;;;;;10.57;6.63;;;;;;;-1.97;82.43;101425.94;1708399;84;21127;-62
2020/12/22 01:54:26;;;;;;;9.17;6.60;;;;;;;-1.97;82.37;101425.94;1699303;84;22350;-64
2020/12/22 01:56:53;;;;;;;10.10;8.03;;;;;;;-2.00;82.34;101419.09;1719932;83;21210;-62
2020/12/22 01:59:22;;;;;;;9.13;6.90;;;;;;;-2.01;82.24;101420.05;1733311;80;21022;-64
2020/12/22 02:01:51;;;;;;;8.20;7.03;;;;;;;-2.04;82.48;101417.69;1724639;80;21209;-63
2020/12/22 02:04:18;;;;;;;7.47;6.33;;;;;;;-2.04;82.35;101415.05;1759033;80;21151;-63
2020/12/22 02:06:46;;;;;;;9.07;6.70;;;;;;;-2.10;82.48;101414.23;1749667;82;21219;-64
2020/12/22 02:09:14;;;;;;;7.03;6.30;;;;;;;-2.12;82.82;101412.22;1748256;82;21635;-64
2020/12/22 02:11:43;;;;;;;10.13;7.33;;;;;;;-2.08;82.79;101406.20;1727742;82;21585;-63
2020/12/22 02:14:11;;;;;;;10.03;7.77;;;;;;;-2.06;82.81;101409.05;1748327;81;21667;-64
2020/12/22 02:16:38;;;;;;;7.23;6.03;;;;;;;-2.10;82.96;101405.00;1749666;82;21635;-64
2020/12/22 02:19:09;;;;;;;9.90;6.60;;;;;;;-2.05;83.05;101402.82;1745765;80;21391;-67
2020/12/22 02:21:36;;;;;;;11.63;8.17;;;;;;;-2.10;83.02;101397.56;1780203;80;21140;-65
2020/12/22 02:24:05;;;;;;;8.67;7.07;;;;;;;-2.20;83.22;101397.48;1719781;83;21229;-63
2020/12/22 02:26:33;;;;;;;9.97;6.87;;;;;;;-2.22;83.32;101391.52;1719789;82;21129;-64
2020/12/22 02:29:01;;;;;;;7.67;5.93;;;;;;;-2.20;83.33;101392.22;1723843;82;21522;-63
2020/12/22 02:31:28;;;;;;;8.07;6.07;;;;;;;-2.14;83.42;101396.16;1739418;82;21324;-74
2020/12/22 02:33:57;;;;;;;10.10;6.03;;;;;;;-2.04;83.40;101399.70;1730461;81;21161;-65
2020/12/22 02:36:25;;;;;;;9.23;7.67;;;;;;;-1.98;83.12;101397.89;1704800;84;20998;-65
2020/12/22 02:38:52;;;;;;;8.47;7.17;;;;;;;-1.96;82.99;101397.27;1704956;84;21207;-63
2020/12/22 02:41:20;;;;;;;8.53;6.67;;;;;;;-1.94;82.86;101407.22;1731752;82;21164;-65
2020/12/22 02:43:48;;;;;;;6.10;5.50;;;;;;;-1.97;82.84;101405.69;1720431;83;21203;-66
2020/12/22 02:46:15;;;;;;;6.00;5.40;;;;;;;-1.94;82.59;101408.53;1722352;82;21169;-63
2020/12/22 02:48:43;;;;;;;5.77;5.17;;;;;;;-1.97;82.57;101412.27;1705043;84;21140;-63
2020/12/22 02:51:11;;;;;;;7.73;6.27;;;;;;;-2.05;82.35;101416.00;1719997;83;21181;-64
2020/12/22 02:53:39;;;;;;;7.53;5.97;;;;;;;-2.12;82.54;101406.95;1730909;82;21628;-65
2020/12/22 02:56:09;;;;;;;6.10;5.50;;;;;;;-2.15;82.75;101403.70;1765789;81;22451;-63
2020/12/22 02:58:36;;;;;;;7.63;6.87;;;;;;;-2.13;83.00;101407.90;1766451;81;21063;-66
2020/12/22 03:01:04;;;;;;;8.50;6.73;;;;;;;-2.08;83.06;101408.36;1737529;81;21143;-65
2020/12/22 03:03:32;;;;;;;8.43;6.87;;;;;;;-2.02;83.01;101406.55;1765860;81;21611;-65
2020/12/22 03:05:59;;;;;;;8.77;7.87;;;;;;;-1.99;83.01;101403.64;1746555;81;21125;-63
2020/12/22 03:08:27;;;;;;;11.70;7.80;;;;;;;-1.98;83.07;101405.32;1764672;81;21392;-65
2020/12/22 03:10:56;;;;;;;10.43;7.67;;;;;;;-1.93;83.08;101404.46;1764567;81;21659;-65
2020/12/22 03:13:23;;;;;;;10.87;7.97;;;;;;;-1.97;83.07;101407.00;1742510;81;20978;-64
2020/12/22 03:15:51;;;;;;;6.00;4.73;;;;;;;-1.98;83.19;101403.16;1740561;81;21063;-67
2020/12/22 03:18:19;;;;;;;10.83;7.53;;;;;;;-1.98;82.89;101402.69;1764164;81;21162;-65
2020/12/22 03:20:46;;;;;;;7.67;6.13;;;;;;;-2.04;83.20;101397.07;1754970;81;21500;-62
2020/12/22 03:23:14;;;;;;;10.77;7.47;;;;;;;-2.04;83.41;101405.82;1766514;81;21039;-63
2020/12/22 03:25:42;;;;;;;8.57;6.67;;;;;;;-2.00;83.52;101403.77;1773159;79;21552;-63
2020/12/22 03:28:10;;;;;;;8.50;7.37;;;;;;;-2.06;83.66;101400.33;1733178;82;21142;-63
2020/12/22 03:30:37;;;;;;;11.57;8.47;;;;;;;-2.13;83.92;101390.77;1732966;82;21193;-63
2020/12/22 03:33:05;;;;;;;9.33;7.87;;;;;;;-2.09;84.03;101388.23;1732975;82;21388;-64
2020/12/22 03:35:32;;;;;;;9.10;6.60;;;;;;;-2.03;84.05;101386.41;1732824;82;21149;-63
2020/12/22 03:38:00;;;;;;;8.83;6.13;;;;;;;-1.99;84.01;101387.83;1755973;80;21116;-64
2020/12/22 03:40:28;;;;;;;10.90;8.03;;;;;;;-2.03;84.12;101393.00;1761426;80;21177;-65
2020/12/22 03:42:55;;;;;;;11.57;7.47;;;;;;;-2.06;84.40;101395.06;1763153;81;21875;-63
2020/12/22 03:45:23;;;;;;;11.53;8.70;;;;;;;-2.09;84.73;101392.66;1748019;81;21652;-64
2020/12/22 03:47:51;;;;;;;10.37;7.83;;;;;;;-2.07;84.72;101385.00;1763186;81;21142;-65
2020/12/22 03:50:20;;;;;;;11.00;8.43;;;;;;;-2.00;84.78;101384.83;1762587;81;21209;-63
2020/12/22 03:52:48;;;;;;;8.27;7.10;;;;;;;-1.96;84.65;101383.60;1763168;81;21608;-65
2020/12/22 03:55:15;;;;;;;10.60;7.93;;;;;;;-1.94;84.75;101380.85;1757204;81;21572;-63
2020/12/22 03:57:43;;;;;;;9.87;6.90;;;;;;;-1.92;84.67;101382.89;1754597;81;21564;-64
2020/12/22 04:00:13;;;;;;;10.77;8.10;;;;;;;-1.87;84.67;101380.20;1774499;80;21639;-63
2020/12/22 04:02:42;;;;;;;9.30;7.73;;;;;;;-1.83;84.57;101376.36;1734824;80;21149;-63
2020/12/22 04:05:10;;;;;;;11.53;7.57;;;;;;;-1.79;84.53;101380.41;1736218;81;21600;-62
2020/12/22 04:07:38;;;;;;;12.50;10.53;;;;;;;-1.79;84.42;101384.37;1733570;80;21634;-62
2020/12/22 04:10:07;;;;;;;11.57;9.07;;;;;;;-1.83;84.44;101373.73;1727445;82;22365;-63
2020/12/22 04:12:36;;;;;;;14.90;11.73;;;;;;;-1.79;84.49;101368.55;1740233;81;21182;-62
2020/12/22 04:15:05;;;;;;;16.63;12.37;;;;;;;-1.78;84.38;101372.02;1720141;82;21621;-63
2020/12/22 04:17:32;;;;;;;16.00;11.10;;;;;;;-1.67;84.50;101370.61;1702308;84;21640;-64
2020/12/22 04:20:02;;;;;;;19.03;12.60;;;;;;;-1.59;84.23;101373.45;1743981;82;21186;-63
2020/12/22 04:22:30;;;;;;;16.87;11.13;;;;;;;-1.51;84.25;101374.95;1731468;82;21214;-66
2020/12/22 04:24:57;;;;;;;17.07;12.40;;;;;;;-1.49;83.58;101367.75;1711501;82;21673;-64
2020/12/22 04:27:25;;;;;;;16.00;11.63;;;;;;;-1.49;83.73;101369.08;1719164;82;21134;-63
2020/12/22 04:29:53;;;;;;;17.60;11.90;;;;;;;-1.52;83.08;101373.27;1702256;84;21185;-63
2020/12/22 04:32:20;;;;;;;17.10;10.67;;;;;;;-1.61;83.15;101374.06;1702349;84;21638;-63
2020/12/22 04:34:50;;;;;;;21.83;13.13;;;;;;;-1.68;83.35;101371.60;1702757;82;21480;-64
2020/12/22 04:37:18;;;;;;;26.27;15.20;;;;;;;-1.73;83.47;101367.20;1719861;83;21173;-65
2020/12/22 04:39:46;;;;;;;22.07;14.23;;;;;;;-1.77;83.64;101365.76;1706037;82;21167;-64
2020/12/22 04:42:15;;;;;;;23.73;15.17;;;;;;;-1.77;83.76;101361.32;1702884;82;21429;-64
2020/12/22 04:44:43;;;;;;;26.43;17.67;;;;;;;-1.72;83.84;101363.56;1698770;82;21194;-63
2020/12/22 04:47:11;;;;;;;32.60;16.80;;;;;;;-1.66;83.61;101366.17;1731550;82;21286;-63
2020/12/22 04:49:42;;;;;;;24.30;15.50;;;;;;;-1.62;83.45;101364.94;1669210;84;21570;-62
2020/12/22 04:52:11;;;;;;;29.40;16.97;;;;;;;-1.58;83.54;101363.75;1711978;81;21612;-62
2020/12/22 04:54:39;;;;;;;19.87;12.57;;;;;;;-1.54;83.41;101363.83;1730632;82;21154;-65
2020/12/22 04:57:07;;;;;;;24.73;14.00;;;;;;;-1.52;83.35;101360.08;1700774;83;21632;-63
2020/12/22 04:59:37;;;;;;;33.13;18.47;;;;;;;-1.49;83.29;101356.36;1724614;83;21401;-63
2020/12/22 05:02:05;;;;;;;27.97;17.70;;;;;;;-1.51;83.05;101356.48;1724525;83;21210;-63
2020/12/22 05:04:37;;;;;;;41.37;21.03;;;;;;;-1.50;82.98;101346.77;1677119;83;21143;-65
2020/12/22 05:07:08;;;;;;;34.10;20.53;;;;;;;-1.50;82.94;101346.77;1696661;84;21210;-62
2020/12/22 05:09:37;;;;;;;30.92;18.37;;;;;;;-1.40;83.08;101347.66;1738302;82;22195;-62
2020/12/22 05:12:05;;;;;;;28.40;16.43;;;;;;;-1.30;82.62;101345.89;1737803;82;21207;-63
2020/12/22 05:14:33;;;;;;;39.90;20.70;;;;;;;-1.28;82.34;101347.06;1707888;84;21337;-68
2020/12/22 05:17:01;;;;;;;32.37;17.20;;;;;;;-1.27;82.21;101340.34;1708433;82;21147;-65
2020/12/22 05:19:35;;;;;;;34.53;18.97;;;;;;;-1.23;82.33;101342.22;1699467;84;21122;-64
2020/12/22 05:21:58;;;;;;;36.73;18.80;;;;;;;-1.24;81.95;101351.09;1692191;82;21595;-64
2020/12/22 05:24:26;;;;;;;28.93;17.90;;;;;;;-1.29;82.15;101344.90;1651363;86;21382;-62
2020/12/22 05:26:54;;;;;;;32.63;18.23;;;;;;;-1.30;82.25;101348.53;1656060;85;21172;-63
2020/12/22 05:29:22;;;;;;;26.67;15.17;;;;;;;-1.38;82.29;101348.34;1683513;84;21534;-61
2020/12/22 05:31:50;;;;;;;33.10;18.73;;;;;;;-1.40;82.53;101347.66;1657275;85;21173;-62
2020/12/22 05:34:21;;;;;;;26.07;15.93;;;;;;;-1.38;82.70;101346.54;1705594;84;21208;-63
2020/12/22 05:36:49;;;;;;;21.93;14.87;;;;;;;-1.35;82.73;101349.41;1708584;84;22462;-62
2020/12/22 05:39:18;;;;;;;29.40;18.70;;;;;;;-1.35;82.71;101353.38;1708967;84;21236;-64
2020/12/22 05:41:46;;;;;;;23.13;14.97;;;;;;;-1.37;82.90;101355.30;1697141;84;21177;-61
2020/12/22 05:44:14;;;;;;;29.30;15.97;;;;;;;-1.34;83.04;101351.06;1681184;84;21629;-61
2020/12/22 05:46:41;;;;;;;33.07;17.67;;;;;;;-1.34;83.08;101359.81;1693000;84;21195;-61
2020/12/22 05:49:10;;;;;;;27.67;19.07;;;;;;;-1.42;83.57;101349.58;1680254;85;21445;-63
2020/12/22 05:51:46;;;;;;;29.37;17.07;;;;;;;-1.39;83.62;101357.25;1680257;85;21023;-62
2020/12/22 05:54:15;;;;;;;25.27;14.03;;;;;;;-1.38;83.81;101353.13;1680367;85;21216;-63
2020/12/22 05:56:44;;;;;;;30.57;20.33;;;;;;;-1.38;83.94;101355.77;1714959;83;21241;-64
2020/12/22 05:59:20;;;;;;;29.63;15.83;;;;;;;-1.42;84.01;101357.01;1722823;83;21189;-63
2020/12/22 06:01:48;;;;;;;26.70;14.67;;;;;;;-1.48;84.53;101354.05;1704768;82;21276;-64
2020/12/22 06:04:19;;;;;;;23.77;14.93;;;;;;;-1.47;84.71;101353.09;1707532;83;21090;-62
2020/12/22 06:06:48;;;;;;;28.87;17.73;;;;;;;-1.46;85.04;101352.13;1697749;83;21028;-64
2020/12/22 06:09:16;;;;;;;28.20;15.17;;;;;;;-1.52;85.23;101342.09;1613410;84;21159;-63
2020/12/22 06:11:49;;;;;;;25.63;14.63;;;;;;;-1.49;85.44;101343.17;1693689;84;21167;-63
2020/12/22 06:14:25;;;;;;;26.93;14.73;;;;;;;-1.47;85.61;101346.02;1708465;83;21399;-64
2020/12/22 06:16:52;;;;;;;27.23;15.10;;;;;;;-1.45;85.77;101346.73;1719452;83;21019;-63
2020/12/22 06:19:20;;;;;;;30.60;18.30;;;;;;;-1.47;86.03;101356.56;1683346;84;21617;-62
2020/12/22 06:21:54;;;;;;;22.33;13.60;;;;;;;-1.46;86.34;101348.17;1699172;83;21614;-63
2020/12/22 06:24:23;;;;;;;23.27;14.38;;;;;;;-1.46;86.53;101349.01;1684819;85;21168;-62
2020/12/22 06:27:00;;;;;;;29.20;15.33;;;;;;;-1.44;86.72;101349.70;1684430;85;21609;-66
2020/12/22 06:29:27;;;;;;;24.70;15.77;;;;;;;-1.43;87.03;101340.81;1680207;85;21207;-62
2020/12/22 06:31:55;;;;;;;23.73;15.00;;;;;;;-1.38;87.18;101339.10;1702639;83;21569;-62
2020/12/22 06:34:26;;;;;;;24.43;14.57;;;;;;;-1.39;87.65;101340.90;1713065;83;21645;-63
2020/12/22 06:36:58;;;;;;;24.53;15.90;;;;;;;-1.40;87.82;101335.78;1713101;83;21211;-63
2020/12/22 06:39:43;;;;;;;22.70;14.75;;;;;;;-1.37;88.05;101328.42;1713221;83;21369;-64
2020/12/22 06:42:30;;;;;;;25.63;13.37;;;;;;;-1.33;88.14;101328.50;1705355;83;21224;-62
2020/12/22 06:45:29;;;;;;;23.30;14.03;;;;;;;-1.35;88.08;101321.22;1712998;83;21139;-63
2020/12/22 06:48:02;;;;;;;28.43;17.87;;;;;;;-1.36;88.52;101323.98;1712814;83;21214;-65
2020/12/22 06:53:36;;;;;;;28.67;15.93;;;;;;;-1.28;89.35;101319.34;1883235;76;26473;-62
2020/12/22 06:56:03;;;;;;;26.82;15.75;;;;;;;-1.30;89.56;101322.14;1782147;80;21010;-62
2020/12/22 06:58:41;;;;;;;27.20;17.20;;;;;;;-1.31;89.63;101313.86;1854408;77;21407;-63
2020/12/22 07:01:28;;;;;;;28.37;16.13;;;;;;;-1.25;89.64;101320.42;1774262;80;21006;-67
2020/12/22 07:04:19;;;;;;;34.17;19.17;;;;;;;-1.32;89.68;101315.66;1810377;77;21016;-61
2020/12/22 07:06:59;;;;;;;35.20;19.33;;;;;;;-1.43;90.05;101312.27;1829811;77;21145;-61
2020/12/22 07:09:32;;;;;;;34.13;20.03;;;;;;;-1.48;90.33;101322.39;1829792;77;21562;-63
2020/12/22 07:12:11;;;;;;;34.70;17.30;;;;;;;-1.45;90.56;101311.59;1853611;77;21195;-64
2020/12/22 07:14:44;;;;;;;34.40;19.50;;;;;;;-1.42;90.77;101314.79;1789907;79;20992;-61
2020/12/22 07:17:20;;;;;;;28.27;18.30;;;;;;;-1.44;90.76;101306.67;1773445;80;21121;-62
2020/12/22 07:19:50;;;;;;;35.97;19.73;;;;;;;-1.48;90.97;101303.44;1746118;80;21142;-66
2020/12/22 07:22:19;;;;;;;34.30;19.67;;;;;;;-1.50;91.13;101304.07;1840618;77;21168;-63
2020/12/22 07:24:47;;;;;;;33.63;20.47;;;;;;;-1.45;91.38;101308.47;1838696;77;23523;-62
2020/12/22 07:27:15;;;;;;;30.47;18.90;;;;;;;-1.39;91.50;101307.91;1833811;77;21568;-62
2020/12/22 07:29:44;;;;;;;29.07;18.53;;;;;;;-1.38;91.47;101306.12;1820983;78;21140;-62
2020/12/22 07:32:12;;;;;;;36.47;21.73;;;;;;;-1.39;91.69;101294.72;1842376;77;21630;-63
2020/12/22 07:34:42;;;;;;;40.27;19.80;;;;;;;-1.39;91.78;101300.00;1854597;77;21400;-65
2020/12/22 07:37:11;;;;;;;36.90;24.27;;;;;;;-1.38;92.04;101288.48;1854528;77;21531;-63
2020/12/22 07:39:39;;;;;;;41.30;19.33;;;;;;;-1.33;92.12;101289.40;1854490;77;21555;-63
2020/12/22 07:42:13;;;;;;;40.67;21.67;;;;;;;-1.29;92.01;101288.16;1834538;77;21105;-63
2020/12/22 07:44:41;;;;;;;;;;;;;;;-1.26;92.03;101281.31;1823877;78;21090;-76
2020/12/22 07:47:09;;;;;;;40.90;20.80;;;;;;;-1.25;91.89;101284.78;1821466;78;20279;-63
2020/12/22 07:49:37;;;;;;;41.97;26.87;;;;;;;-1.24;92.09;101283.31;1822196;77;21371;-63
2020/12/22 07:52:07;;;;;;;35.97;21.33;;;;;;;-1.23;92.06;101273.59;1818074;77;21110;-62
2020/12/22 07:54:34;;;;;;;38.13;19.70;;;;;;;-1.19;92.12;101282.42;1811934;79;20975;-62
2020/12/22 07:57:02;;;;;;;35.27;19.50;;;;;;;-1.14;91.86;101278.06;1811978;79;21149;-62
2020/12/22 07:59:31;;;;;;;33.20;17.93;;;;;;;-1.13;91.61;101278.41;1811944;79;21145;-65
2020/12/22 08:01:59;;;;;;;33.57;20.57;;;;;;;-1.16;91.45;101274.25;1812380;77;21424;-65
2020/12/22 08:04:27;;;;;;;34.43;19.33;;;;;;;-1.12;91.44;101283.56;1811365;78;21154;-63
2020/12/22 08:07:05;;;;;;;31.63;18.77;;;;;;;-1.12;91.21;101277.45;1816757;77;20983;-61
2020/12/22 08:09:37;;;;;;;35.30;18.93;;;;;;;-1.16;90.94;101282.17;1813260;77;21670;-63
2020/12/22 08:12:09;;;;;;;32.10;19.60;;;;;;;-1.19;90.89;101278.47;1822746;77;21126;-65
2020/12/22 08:14:40;;;;;;;37.40;20.07;;;;;;;-1.20;90.89;101268.06;1796227;77;21196;-64
2020/12/22 08:17:17;;;;;;;28.67;15.73;;;;;;;-1.17;90.89;101273.06;1852864;77;21034;-62
2020/12/22 08:19:45;;;;;;;36.70;18.33;;;;;;;-1.09;90.91;101271.41;1851356;77;21006;-65
2020/12/22 08:22:15;;;;;;;29.20;17.07;;;;;;;-1.05;90.56;101274.59;1835686;77;21137;-64
2020/12/22 08:24:44;;;;;;;29.63;16.23;;;;;;;-0.98;90.42;101266.50;1848454;77;22300;-64
2020/12/22 08:27:12;;;;;;;29.13;15.87;;;;;;;-0.93;89.98;101266.92;1848469;77;21349;-65
2020/12/22 08:29:42;;;;;;;31.90;15.20;;;;;;;-0.93;89.71;101251.08;1835914;77;21181;-64
2020/12/22 08:32:10;;;;;;;25.53;15.40;;;;;;;-0.89;89.53;101253.30;1793752;79;21173;-63
2020/12/22 08:34:45;;;;;;;33.60;17.30;;;;;;;-0.91;89.29;101247.31;1781649;78;21443;-65
2020/12/22 08:37:13;;;;;;;27.23;15.77;;;;;;;-0.91;89.23;101246.48;1837116;78;21082;-66
2020/12/22 08:39:43;;;;;;;28.60;17.70;;;;;;;-0.93;89.25;101252.40;1837059;78;21196;-63
2020/12/22 08:42:11;;;;;;;26.93;16.00;;;;;;;-0.94;89.30;101244.13;1827058;77;21194;-62
2020/12/22 08:44:52;;;;;;;25.40;15.67;;;;;;;-0.86;89.44;101241.61;1838270;77;21113;-66
2020/12/22 08:47:20;;;;;;;32.77;15.17;;;;;;;-0.77;89.31;101236.85;1852866;77;21735;-63
2020/12/22 08:49:48;;;;;;;25.77;14.60;;;;;;;-0.71;88.59;101235.44;1846080;77;21237;-63
2020/12/22 08:52:19;;;;;;;25.40;14.90;;;;;;;-0.70;88.46;101231.83;1820928;77;21192;-66
2020/12/22 08:54:48;;;;;;;32.60;18.13;;;;;;;-0.69;88.18;101224.25;1820434;77;21058;-63
2020/12/22 08:57:18;;;;;;;30.33;16.93;;;;;;;-0.70;87.89;101225.22;1839365;77;21138;-63
2020/12/22 08:59:46;;;;;;;34.20;19.33;;;;;;;-0.72;87.89;101220.59;1808701;78;21134;-64
2020/12/22 09:05:18;;;;;;;29.33;18.87;;;;;;;-0.63;87.82;101220.58;1846981;76;24975;-68
2020/12/22 09:07:43;;;;;;;33.67;19.20;;;;;;;-0.60;87.58;101218.12;1816501;78;21583;-64
2020/12/22 09:10:12;;;;;;;27.13;16.03;;;;;;;-0.56;87.04;101215.06;1816337;79;21503;-62
2020/12/22 09:12:39;;;;;;;25.13;13.93;;;;;;;-0.51;86.82;101212.00;1817226;78;20960;-67
2020/12/22 09:15:08;;;;;;;38.60;20.43;;;;;;;-0.48;86.66;101203.29;1817180;78;21156;-65
2020/12/22 09:17:36;;;;;;;39.00;20.40;;;;;;;-0.47;86.62;101197.04;1817191;79;20971;-67
2020/12/22 09:20:06;;;;;;;33.20;17.30;;;;;;;-0.41;86.18;101204.05;1808790;79;20964;-65
2020/12/22 09:22:35;;;;;;;40.07;22.53;;;;;;;-0.42;86.05;101198.42;1816763;78;21658;-63
2020/12/22 09:25:07;;;;;;;26.70;16.70;;;;;;;-0.46;85.73;101193.42;1814998;79;21038;-64
2020/12/22 09:27:37;;;;;;;33.97;21.07;;;;;;;-0.44;86.06;101188.01;1817107;79;21034;-64
2020/12/22 09:30:12;;;;;;;32.30;18.97;;;;;;;-0.44;86.06;101188.01;1817074;79;21609;-62
2020/12/22 09:32:41;;;;;;;35.43;19.87;;;;;;;-0.38;85.87;101185.29;1817083;79;21093;-64
2020/12/22 09:35:08;;;;;;;29.97;17.70;;;;;;;-0.42;84.85;101185.20;1817118;79;21591;-63
2020/12/22 09:37:37;;;;;;;38.87;20.90;;;;;;;-0.51;84.94;101184.25;1817128;79;20987;-63
2020/12/22 09:40:05;;;;;;;30.80;19.23;;;;;;;-0.58;85.03;101181.84;1815042;78;21193;-62
2020/12/22 09:42:33;;;;;;;33.37;19.47;;;;;;;-0.64;85.04;101186.36;1817122;78;21006;-64
2020/12/22 09:45:01;;;;;;;40.83;20.90;;;;;;;-0.60;85.31;101174.05;1796552;79;21121;-65
2020/12/22 09:47:29;;;;;;;31.13;17.20;;;;;;;-0.54;85.06;101172.66;1782028;80;21365;-63
2020/12/22 09:49:57;;;;;;;38.90;21.50;;;;;;;-0.51;84.89;101175.00;1784868;80;21573;-65
2020/12/22 09:52:25;;;;;;;42.87;25.13;;;;;;;-0.51;84.85;101177.16;1784999;80;21543;-63
2020/12/22 09:54:53;;;;;;;28.43;16.57;;;;;;;-0.46;84.89;101174.92;1784859;79;21141;-62
2020/12/22 09:57:21;;;;;;;34.60;19.17;;;;;;;-0.39;84.67;101169.91;1761390;80;21157;-63
2020/12/22 09:59:52;;;;;;;32.73;18.07;;;;;;;-0.38;84.44;101165.47;1784876;80;20998;-62
2020/12/22 10:02:21;;;;;;;36.00;20.20;;;;;;;-0.31;84.33;101158.13;1784917;79;21145;-63
2020/12/22 10:04:49;;;;;;;31.20;18.43;;;;;;;-0.36;83.72;101152.92;1796021;78;21140;-64
2020/12/22 10:07:16;;;;;;;41.13;20.13;;;;;;;-0.43;83.82;101151.33;1785389;79;21145;-66
2020/12/22 10:09:45;;;;;;;37.00;21.20;;;;;;;-0.52;84.04;101147.73;1766382;81;21105;-63
2020/12/22 10:12:13;;;;;;;30.57;16.13;;;;;;;-0.52;84.22;101146.42;1766229;81;21425;-63
2020/12/22 10:14:41;;;;;;;30.13;18.20;;;;;;;-0.43;84.36;101146.05;1766034;80;21212;-63
2020/12/22 10:17:10;;;;;;;31.43;16.73;;;;;;;-0.43;84.16;101141.27;1765623;81;21096;-62
2020/12/22 10:19:38;;;;;;;27.07;17.87;;;;;;;-0.44;84.19;101136.47;1780368;79;21170;-62
2020/12/22 10:22:06;;;;;;;21.83;13.37;;;;;;;-0.41;84.17;101142.78;1798744;79;21562;-66
2020/12/22 10:24:35;;;;;;;26.83;15.77;;;;;;;-0.35;84.26;101135.61;1798863;79;21327;-61
2020/12/22 10:27:05;;;;;;;33.97;17.73;;;;;;;-0.32;84.04;101133.16;1798742;79;21136;-64
2020/12/22 10:29:32;;;;;;;31.20;18.07;;;;;;;-0.38;83.97;101135.88;1798892;79;21164;-64
2020/12/22 10:32:00;;;;;;;37.70;19.57;;;;;;;-0.42;83.82;101131.02;1798803;79;21014;-63
2020/12/22 10:34:28;;;;;;;24.33;18.07;;;;;;;-0.45;83.98;101125.55;1798964;79;21597;-64
2020/12/22 10:36:56;;;;;;;29.97;17.07;;;;;;;-0.48;83.90;101121.37;1798841;79;21784;-62
2020/12/22 10:39:24;;;;;;;32.83;17.10;;;;;;;-0.43;84.12;101123.58;1795888;79;21176;-63
2020/12/22 10:41:52;;;;;;;27.10;15.30;;;;;;;-0.40;84.26;101119.34;1798995;79;21136;-73
2020/12/22 10:44:20;;;;;;;27.43;18.27;;;;;;;-0.34;84.41;101110.02;1798905;79;21609;-63
2020/12/22 10:46:48;;;;;;;35.83;22.07;;;;;;;-0.26;84.40;101099.54;1798992;78;21180;-63
2020/12/22 10:49:16;;;;;;;35.57;22.43;;;;;;;-0.19;84.26;101094.83;1798860;79;21341;-62
2020/12/22 10:51:44;;;;;;;40.40;22.07;;;;;;;-0.14;84.41;101090.42;1745469;78;21045;-62
2020/12/22 10:54:12;;;;;;;40.80;23.50;;;;;;;-0.12;84.19;101086.67;1796343;79;21161;-65
2020/12/22 10:56:45;;;;;;;35.93;19.90;;;;;;;-0.15;84.13;101085.66;1798752;79;20986;-66
2020/12/22 10:59:13;;;;;;;35.65;22.05;;;;;;;-0.16;84.27;101084.47;1798963;79;21109;-66
2020/12/22 11:01:41;;;;;;;43.50;19.53;;;;;;;-0.11;84.40;101078.25;1798602;79;21409;-65
2020/12/22 11:04:10;;;;;;;36.70;24.17;;;;;;;-0.07;84.38;101072.52;1797717;79;21069;-61
2020/12/22 11:09:11;;;;;;;39.77;19.47;;;;;;;-0.05;84.19;101068.42;1780642;79;21624;-66
2020/12/22 11:11:46;;;;;;;49.93;24.57;;;;;;;-0.05;84.10;101073.70;1758912;80;21603;-61
2020/12/22 11:14:14;;;;;;;49.33;23.97;;;;;;;0.00;84.13;101074.91;1761269;81;21427;-62
2020/12/22 11:16:41;;;;;;;42.70;25.97;;;;;;;-0.02;83.87;101065.47;1764735;80;21079;-62
2020/12/22 11:19:10;;;;;;;38.30;20.10;;;;;;;-0.11;83.98;101069.84;1775923;80;21566;-65
2020/12/22 11:21:38;;;;;;;37.47;18.43;;;;;;;-0.10;84.15;101071.51;1777499;80;21250;-62
2020/12/22 11:24:05;;;;;;;36.53;21.53;;;;;;;-0.14;84.20;101070.11;1754296;80;21270;-63
2020/12/22 11:26:33;;;;;;;35.13;20.03;;;;;;;-0.17;84.23;101076.19;1761940;80;21602;-64
2020/12/22 11:29:01;;;;;;;37.93;21.27;;;;;;;-0.21;84.45;101076.98;1746304;81;21015;-65
2020/12/22 11:31:29;;;;;;;39.23;22.97;;;;;;;-0.23;84.58;101074.95;1766932;80;21050;-65